sensor_id;sensor_type;location;lat;lon;timestamp;pressure;altitude;pressure_sealevel;temperature;humidity
32873;BME280;19224;52.462;16.898;2024-01-30T00:01:45;101819.63;;;4.95;98.18
32873;BME280;19224;52.462;16.898;2024-01-30T00:04:15;101817.41;;;4.99;97.84
32873;BME280;19224;52.462;16.898;2024-01-30T00:06:46;101816.55;;;5.00;97.64
32873;BME280;19224;52.462;16.898;2024-01-30T00:09:17;101830.34;;;5.04;97.51
32873;BME280;19224;52.462;16.898;2024-01-30T00:11:47;101821.41;;;4.99;97.56
32873;BME280;19224;52.462;16.898;2024-01-30T00:14:17;101818.73;;;4.91;97.95
32873;BME280;19224;52.462;16.898;2024-01-30T00:16:47;101818.74;;;4.96;97.73
32873;BME280;19224;52.462;16.898;2024-01-30T00:19:18;101815.57;;;4.71;98.66
32873;BME280;19224;52.462;16.898;2024-01-30T00:21:48;101813.77;;;4.65;98.88
32873;BME280;19224;52.462;16.898;2024-01-30T00:24:18;101809.72;;;4.55;99.56
32873;BME280;19224;52.462;16.898;2024-01-30T00:26:49;101810.64;;;4.57;99.62
32873;BME280;19224;52.462;16.898;2024-01-30T00:29:19;101810.64;;;4.63;99.06
32873;BME280;19224;52.462;16.898;2024-01-30T00:31:51;101806.20;;;4.62;99.01
32873;BME280;19224;52.462;16.898;2024-01-30T00:34:21;101815.55;;;4.69;98.63
32873;BME280;19224;52.462;16.898;2024-01-30T00:36:52;101814.27;;;4.80;98.07
32873;BME280;19224;52.462;16.898;2024-01-30T00:39:22;101820.47;;;4.73;98.22
32873;BME280;19224;52.462;16.898;2024-01-30T00:41:52;101816.46;;;4.70;98.27
32873;BME280;19224;52.462;16.898;2024-01-30T00:44:22;101816.05;;;4.81;97.81
32873;BME280;19224;52.462;16.898;2024-01-30T00:46:53;101817.83;;;4.82;97.65
32873;BME280;19224;52.462;16.898;2024-01-30T00:49:25;101821.83;;;4.79;97.84
32873;BME280;19224;52.462;16.898;2024-01-30T00:51:55;101817.83;;;4.79;97.57
32873;BME280;19224;52.462;16.898;2024-01-30T00:54:26;101823.15;;;4.80;97.46
32873;BME280;19224;52.462;16.898;2024-01-30T00:56:56;101819.16;;;4.79;97.48
32873;BME280;19224;52.462;16.898;2024-01-30T00:59:26;101815.59;;;4.78;97.36
32873;BME280;19224;52.462;16.898;2024-01-30T01:01:57;101824.48;;;4.74;97.59
32873;BME280;19224;52.462;16.898;2024-01-30T01:04:27;101820.47;;;4.76;97.34
32873;BME280;19224;52.462;16.898;2024-01-30T01:06:57;101817.78;;;4.68;97.59
32873;BME280;19224;52.462;16.898;2024-01-30T01:09:27;101810.68;;;4.69;97.34
32873;BME280;19224;52.462;16.898;2024-01-30T01:11:58;101811.55;;;4.69;97.24
32873;BME280;19224;52.462;16.898;2024-01-30T01:14:28;101807.52;;;4.55;97.56
32873;BME280;19224;52.462;16.898;2024-01-30T01:16:58;101805.25;;;4.47;98.08
32873;BME280;19224;52.462;16.898;2024-01-30T01:19:31;101802.60;;;4.54;97.93
32873;BME280;19224;52.462;16.898;2024-01-30T01:22:01;101803.51;;;4.58;97.71
32873;BME280;19224;52.462;16.898;2024-01-30T01:24:32;101807.94;;;4.48;98.11
32873;BME280;19224;52.462;16.898;2024-01-30T01:27:04;101804.83;;;4.47;98.05
32873;BME280;19224;52.462;16.898;2024-01-30T01:29:35;101804.34;;;4.40;98.51
32873;BME280;19224;52.462;16.898;2024-01-30T01:32:06;101802.55;;;4.36;98.70
32873;BME280;19224;52.462;16.898;2024-01-30T01:34:36;101804.75;;;4.34;98.83
32873;BME280;19224;52.462;16.898;2024-01-30T01:37:06;101798.52;;;4.30;99.02
32873;BME280;19224;52.462;16.898;2024-01-30T01:39:37;101798.11;;;4.35;98.79
32873;BME280;19224;52.462;16.898;2024-01-30T01:42:06;101796.73;;;4.29;98.98
32873;BME280;19224;52.462;16.898;2024-01-30T01:44:37;101808.73;;;4.29;99.00
32873;BME280;19224;52.462;16.898;2024-01-30T01:47:07;101806.53;;;4.32;98.67
32873;BME280;19224;52.462;16.898;2024-01-30T01:49:38;101802.06;;;4.29;98.83
32873;BME280;19224;52.462;16.898;2024-01-30T01:52:09;101806.97;;;4.30;98.89
32873;BME280;19224;52.462;16.898;2024-01-30T01:54:40;101811.39;;;4.26;99.05
32873;BME280;19224;52.462;16.898;2024-01-30T01:57:10;101811.39;;;4.26;98.80
32873;BME280;19224;52.462;16.898;2024-01-30T01:59:41;101809.20;;;4.32;98.59
32873;BME280;19224;52.462;16.898;2024-01-30T02:02:12;101807.45;;;4.38;98.27
32873;BME280;19224;52.462;16.898;2024-01-30T02:04:45;101807.00;;;4.40;97.87
32873;BME280;19224;52.462;16.898;2024-01-30T02:07:16;101802.58;;;4.41;97.84
32873;BME280;19224;52.462;16.898;2024-01-30T02:09:46;101798.95;;;4.25;98.23
32873;BME280;19224;52.462;16.898;2024-01-30T02:12:16;101802.95;;;4.22;98.57
32873;BME280;19224;52.462;16.898;2024-01-30T02:14:49;101795.34;;;4.20;98.61
32873;BME280;19224;52.462;16.898;2024-01-30T02:17:19;101795.86;;;4.29;98.24
32873;BME280;19224;52.462;16.898;2024-01-30T02:19:49;101796.29;;;4.31;97.98
32873;BME280;19224;52.462;16.898;2024-01-30T02:22:21;101801.61;;;4.22;98.36
32873;BME280;19224;52.462;16.898;2024-01-30T02:24:51;101801.57;;;4.19;98.47
32873;BME280;19224;52.462;16.898;2024-01-30T02:27:22;101795.34;;;4.20;98.51
32873;BME280;19224;52.462;16.898;2024-01-30T02:29:52;101798.91;;;4.19;98.37
32873;BME280;19224;52.462;16.898;2024-01-30T02:32:22;101796.73;;;4.29;97.75
32873;BME280;19224;52.462;16.898;2024-01-30T02:34:53;101800.28;;;4.22;98.05
32873;BME280;19224;52.462;16.898;2024-01-30T02:37:23;101799.41;;;4.32;97.62
32873;BME280;19224;52.462;16.898;2024-01-30T02:39:53;101797.17;;;4.27;97.76
32873;BME280;19224;52.462;16.898;2024-01-30T02:42:23;101790.06;;;4.26;97.81
32873;BME280;19224;52.462;16.898;2024-01-30T02:44:54;101793.64;;;4.30;97.49
32873;BME280;19224;52.462;16.898;2024-01-30T02:47:24;101792.28;;;4.28;97.39
32873;BME280;19224;52.462;16.898;2024-01-30T02:49:55;101793.14;;;4.17;97.79
32873;BME280;19224;52.462;16.898;2024-01-30T02:52:25;101784.68;;;4.17;97.81
32873;BME280;19224;52.462;16.898;2024-01-30T02:54:55;101797.11;;;4.12;97.95
32873;BME280;19224;52.462;16.898;2024-01-30T02:57:26;101789.54;;;4.12;97.84
32873;BME280;19224;52.462;16.898;2024-01-30T02:59:57;101787.28;;;4.02;98.31
32873;BME280;19224;52.462;16.898;2024-01-30T03:02:27;101788.58;;;3.99;98.57
32873;BME280;19224;52.462;16.898;2024-01-30T03:04:58;101782.81;;;4.00;98.54
32873;BME280;19224;52.462;16.898;2024-01-30T03:07:28;101781.04;;;3.99;98.57
32873;BME280;19224;52.462;16.898;2024-01-30T03:09:58;101779.27;;;4.04;98.29
32873;BME280;19224;52.462;16.898;2024-01-30T03:12:29;101785.92;;;3.98;98.51
32873;BME280;19224;52.462;16.898;2024-01-30T03:15:01;101777.02;;;3.97;98.52
32873;BME280;19224;52.462;16.898;2024-01-30T03:17:32;101771.30;;;4.08;98.17
32873;BME280;19224;52.462;16.898;2024-01-30T03:20:02;101773.05;;;4.02;98.25
32873;BME280;19224;52.462;16.898;2024-01-30T03:22:33;101778.42;;;4.08;97.95
32873;BME280;19224;52.462;16.898;2024-01-30T03:25:04;101774.88;;;4.12;97.82
32873;BME280;19224;52.462;16.898;2024-01-30T03:27:35;101769.15;;;4.20;97.22
32873;BME280;19224;52.462;16.898;2024-01-30T03:30:07;101765.14;;;4.17;97.33
32873;BME280;19224;52.462;16.898;2024-01-30T03:32:37;101768.22;;;4.15;97.42
32873;BME280;19224;52.462;16.898;2024-01-30T03:35:08;101771.39;;;4.23;97.08
32873;BME280;19224;52.462;16.898;2024-01-30T03:37:39;101770.46;;;4.15;97.28
32873;BME280;19224;52.462;16.898;2024-01-30T03:40:12;101767.75;;;4.09;97.71
32873;BME280;19224;52.462;16.898;2024-01-30T03:42:42;101775.31;;;4.10;97.58
32873;BME280;19224;52.462;16.898;2024-01-30T03:45:13;101760.66;;;4.07;97.83
32873;BME280;19224;52.462;16.898;2024-01-30T03:47:44;101770.39;;;4.00;98.01
32873;BME280;19224;52.462;16.898;2024-01-30T03:50:15;101770.39;;;4.00;97.89
32873;BME280;19224;52.462;16.898;2024-01-30T03:52:45;101773.95;;;4.05;97.93
32873;BME280;19224;52.462;16.898;2024-01-30T03:55:15;101769.62;;;4.25;97.03
32873;BME280;19224;52.462;16.898;2024-01-30T03:57:46;101773.13;;;4.12;97.30
32873;BME280;19224;52.462;16.898;2024-01-30T04:00:17;101767.80;;;4.21;97.10
32873;BME280;19224;52.462;16.898;2024-01-30T04:02:56;101769.58;;;4.16;97.06
32873;BME280;19224;52.462;16.898;2024-01-30T04:05:26;101769.61;;;4.22;97.07
32873;BME280;19224;52.462;16.898;2024-01-30T04:07:57;101771.44;;;4.35;96.43
32873;BME280;19224;52.462;16.898;2024-01-30T04:10:27;101773.17;;;4.30;96.37
32873;BME280;19224;52.462;16.898;2024-01-30T04:12:57;101770.53;;;4.35;96.49
32873;BME280;19224;52.462;16.898;2024-01-30T04:15:28;101781.69;;;4.45;95.90
32873;BME280;19224;52.462;16.898;2024-01-30T04:17:59;101770.57;;;4.41;95.95
32873;BME280;19224;52.462;16.898;2024-01-30T04:20:30;101770.59;;;4.51;95.56
32873;BME280;19224;52.462;16.898;2024-01-30T04:23:00;101778.15;;;4.47;95.71
32873;BME280;19224;52.462;16.898;2024-01-30T04:25:31;101778.61;;;4.53;95.30
32873;BME280;19224;52.462;16.898;2024-01-30T04:28:01;101780.78;;;4.41;95.80
32873;BME280;19224;52.462;16.898;2024-01-30T04:30:32;101777.70;;;4.46;95.50
32873;BME280;19224;52.462;16.898;2024-01-30T04:33:02;101777.26;;;4.45;95.65
32873;BME280;19224;52.462;16.898;2024-01-30T04:35:33;101783.91;;;4.47;95.50
32873;BME280;19224;52.462;16.898;2024-01-30T04:38:03;101783.92;;;4.45;95.33
32873;BME280;19224;52.462;16.898;2024-01-30T04:40:34;101782.63;;;4.57;94.94
32873;BME280;19224;52.462;16.898;2024-01-30T04:43:04;101782.19;;;4.56;94.82
32873;BME280;19224;52.462;16.898;2024-01-30T04:45:35;101781.30;;;4.57;94.83
32873;BME280;19224;52.462;16.898;2024-01-30T04:48:06;101778.17;;;4.55;94.86
32873;BME280;19224;52.462;16.898;2024-01-30T04:50:37;101778.58;;;4.44;95.54
32873;BME280;19224;52.462;16.898;2024-01-30T04:53:07;101778.15;;;4.50;95.05
32873;BME280;19224;52.462;16.898;2024-01-30T04:55:37;101779.95;;;4.56;94.99
32873;BME280;19224;52.462;16.898;2024-01-30T04:58:08;101774.62;;;4.57;94.74
32873;BME280;19224;52.462;16.898;2024-01-30T05:00:39;101778.12;;;4.40;95.59
32873;BME280;19224;52.462;16.898;2024-01-30T05:03:10;101778.59;;;4.45;95.45
32873;BME280;19224;52.462;16.898;2024-01-30T05:05:41;101773.26;;;4.51;95.05
32873;BME280;19224;52.462;16.898;2024-01-30T05:08:11;101777.24;;;4.44;95.43
32873;BME280;19224;52.462;16.898;2024-01-30T05:10:42;101771.46;;;4.43;95.61
32873;BME280;19224;52.462;16.898;2024-01-30T05:13:13;101780.80;;;4.40;95.63
32873;BME280;19224;52.462;16.898;2024-01-30T05:15:44;101781.23;;;4.44;95.36
32873;BME280;19224;52.462;16.898;2024-01-30T05:18:14;101787.00;;;4.40;95.61
32873;BME280;19224;52.462;16.898;2024-01-30T05:20:44;101783.93;;;4.48;95.38
32873;BME280;19224;52.462;16.898;2024-01-30T05:23:14;101782.17;;;4.52;95.24
32873;BME280;19224;52.462;16.898;2024-01-30T05:25:45;101784.80;;;4.46;95.21
32873;BME280;19224;52.462;16.898;2024-01-30T05:28:15;101787.00;;;4.43;95.51
32873;BME280;19224;52.462;16.898;2024-01-30T05:30:45;101789.27;;;4.45;95.38
32873;BME280;19224;52.462;16.898;2024-01-30T05:33:16;101787.02;;;4.48;95.26
32873;BME280;19224;52.462;16.898;2024-01-30T05:35:48;101785.70;;;4.55;95.04
32873;BME280;19224;52.462;16.898;2024-01-30T05:38:18;101784.81;;;4.50;95.58
32873;BME280;19224;52.462;16.898;2024-01-30T05:40:48;101787.06;;;4.54;95.84
32873;BME280;19224;52.462;16.898;2024-01-30T05:43:19;101783.92;;;4.45;96.17
32873;BME280;19224;52.462;16.898;2024-01-30T05:45:49;101784.33;;;4.34;96.25
32873;BME280;19224;52.462;16.898;2024-01-30T05:48:20;101783.00;;;4.43;96.03
32873;BME280;19224;52.462;16.898;2024-01-30T05:50:50;101787.02;;;4.45;95.90
32873;BME280;19224;52.462;16.898;2024-01-30T05:53:20;101784.77;;;4.38;96.36
32873;BME280;19224;52.462;16.898;2024-01-30T05:55:50;101782.09;;;4.34;96.50
32873;BME280;19224;52.462;16.898;2024-01-30T05:58:20;101790.13;;;4.43;96.25
32873;BME280;19224;52.462;16.898;2024-01-30T06:00:50;101797.27;;;4.45;95.97
32873;BME280;19224;52.462;16.898;2024-01-30T06:03:21;101793.63;;;4.28;96.55
32873;BME280;19224;52.462;16.898;2024-01-30T06:05:51;101793.25;;;4.47;95.81
32873;BME280;19224;52.462;16.898;2024-01-30T06:08:21;101783.02;;;4.48;95.46
32873;BME280;19224;52.462;16.898;2024-01-30T06:10:52;101785.24;;;4.47;95.50
32873;BME280;19224;52.462;16.898;2024-01-30T06:13:23;101791.44;;;4.35;95.76
32873;BME280;19224;52.462;16.898;2024-01-30T06:15:53;101787.00;;;4.40;95.89
32873;BME280;19224;52.462;16.898;2024-01-30T06:18:23;101787.39;;;4.23;96.39
32873;BME280;19224;52.462;16.898;2024-01-30T06:20:55;101782.92;;;4.21;96.38
32873;BME280;19224;52.462;16.898;2024-01-30T06:23:26;101788.28;;;4.22;96.41
32873;BME280;19224;52.462;16.898;2024-01-30T06:25:56;101785.62;;;4.25;96.38
32873;BME280;19224;52.462;16.898;2024-01-30T06:28:26;101782.98;;;4.36;95.98
32873;BME280;19224;52.462;16.898;2024-01-30T06:30:57;101781.23;;;4.41;95.42
32873;BME280;19224;52.462;16.898;2024-01-30T06:33:27;101784.78;;;4.41;95.26
32873;BME280;19224;52.462;16.898;2024-01-30T06:35:57;101785.27;;;4.48;95.05
32873;BME280;19224;52.462;16.898;2024-01-30T06:38:27;101788.82;;;4.50;95.00
32873;BME280;19224;52.462;16.898;2024-01-30T06:40:58;101779.92;;;4.51;94.81
32873;BME280;19224;52.462;16.898;2024-01-30T06:43:29;101784.78;;;4.44;95.06
32873;BME280;19224;52.462;16.898;2024-01-30T06:45:59;101778.58;;;4.50;94.56
32873;BME280;19224;52.462;16.898;2024-01-30T06:48:29;101781.28;;;4.56;94.57
32873;BME280;19224;52.462;16.898;2024-01-30T06:50:59;101782.11;;;4.41;94.95
32873;BME280;19224;52.462;16.898;2024-01-30T06:53:31;101774.11;;;4.41;95.23
32873;BME280;19224;52.462;16.898;2024-01-30T06:56:01;101779.40;;;4.29;95.78
32873;BME280;19224;52.462;16.898;2024-01-30T06:58:35;101773.22;;;4.39;95.35
32873;BME280;19224;52.462;16.898;2024-01-30T07:01:07;101780.78;;;4.44;95.21
32873;BME280;19224;52.462;16.898;2024-01-30T07:03:38;101779.00;;;4.37;95.44
32873;BME280;19224;52.462;16.898;2024-01-30T07:06:09;101784.38;;;4.55;94.78
32873;BME280;19224;52.462;16.898;2024-01-30T07:08:41;101782.19;;;4.59;94.42
32873;BME280;19224;52.462;16.898;2024-01-30T07:11:17;101785.75;;;4.71;94.09
32873;BME280;19224;52.462;16.898;2024-01-30T07:13:43;101782.20;;;4.66;94.06
32873;BME280;19224;52.462;16.898;2024-01-30T07:16:14;101783.99;;;4.72;94.27
32873;BME280;19224;52.462;16.898;2024-01-30T07:18:45;101786.69;;;4.81;93.85
32873;BME280;19224;52.462;16.898;2024-01-30T07:21:21;101789.80;;;4.82;94.02
32873;BME280;19224;52.462;16.898;2024-01-30T07:23:47;101787.13;;;4.82;94.15
32873;BME280;19224;52.462;16.898;2024-01-30T07:26:19;101786.70;;;4.88;93.92
32873;BME280;19224;52.462;16.898;2024-01-30T07:28:50;101793.85;;;5.03;93.44
32873;BME280;19224;52.462;16.898;2024-01-30T07:31:23;101790.74;;;5.17;92.83
32873;BME280;19224;52.462;16.898;2024-01-30T07:33:53;101794.77;;;5.18;92.62
32873;BME280;19224;52.462;16.898;2024-01-30T07:36:26;101789.41;;;5.14;92.65
32873;BME280;19224;52.462;16.898;2024-01-30T07:39:01;101795.63;;;5.26;92.70
32873;BME280;19224;52.462;16.898;2024-01-30T07:41:32;101790.73;;;5.20;92.70
32873;BME280;19224;52.462;16.898;2024-01-30T07:44:04;101787.20;;;5.24;92.60
32873;BME280;19224;52.462;16.898;2024-01-30T07:46:34;101786.75;;;5.42;91.88
32873;BME280;19224;52.462;16.898;2024-01-30T07:49:05;101797.88;;;5.39;91.62
32873;BME280;19224;52.462;16.898;2024-01-30T07:51:35;101794.31;;;5.40;91.79
32873;BME280;19224;52.462;16.898;2024-01-30T07:54:06;101796.08;;;5.57;91.02
32873;BME280;19224;52.462;16.898;2024-01-30T07:56:36;101787.61;;;5.64;90.76
32873;BME280;19224;52.462;16.898;2024-01-30T07:59:11;101789.84;;;5.63;90.78
32873;BME280;19224;52.462;16.898;2024-01-30T08:01:41;101790.72;;;5.69;90.63
32873;BME280;19224;52.462;16.898;2024-01-30T08:04:11;101783.16;;;5.76;90.17
32873;BME280;19224;52.462;16.898;2024-01-30T08:06:42;101785.84;;;5.84;90.01
32873;BME280;19224;52.462;16.898;2024-01-30T08:09:12;101784.93;;;5.94;89.57
32873;BME280;19224;52.462;16.898;2024-01-30T08:11:42;101790.27;;;5.98;89.15
32873;BME280;19224;52.462;16.898;2024-01-30T08:14:12;101794.66;;;6.19;88.78
32873;BME280;19224;52.462;16.898;2024-01-30T08:16:43;101789.25;;;6.37;88.00
32873;BME280;19224;52.462;16.898;2024-01-30T08:19:14;101785.67;;;6.38;87.10
32873;BME280;19224;52.462;16.898;2024-01-30T08:21:45;101784.82;;;6.25;87.42
32873;BME280;19224;52.462;16.898;2024-01-30T08:24:15;101790.58;;;6.35;86.80
32873;BME280;19224;52.462;16.898;2024-01-30T08:26:45;101796.74;;;6.54;86.89
32873;BME280;19224;52.462;16.898;2024-01-30T08:29:17;101789.59;;;6.59;86.57
32873;BME280;19224;52.462;16.898;2024-01-30T08:31:52;101788.21;;;6.65;86.35
32873;BME280;19224;52.462;16.898;2024-01-30T08:34:24;101781.12;;;6.55;85.76
32873;BME280;19224;52.462;16.898;2024-01-30T08:36:54;101786.45;;;6.67;85.76
32873;BME280;19224;52.462;16.898;2024-01-30T08:39:25;101787.25;;;6.81;84.98
32873;BME280;19224;52.462;16.898;2024-01-30T08:41:56;101785.39;;;6.92;84.35
32873;BME280;19224;52.462;16.898;2024-01-30T08:44:27;101789.36;;;7.01;83.69
32873;BME280;19224;52.462;16.898;2024-01-30T08:46:57;101783.56;;;6.97;83.93
32873;BME280;19224;52.462;16.898;2024-01-30T08:49:28;101784.41;;;7.03;83.38
32873;BME280;19224;52.462;16.898;2024-01-30T08:51:58;101787.09;;;7.06;82.53
32873;BME280;19224;52.462;16.898;2024-01-30T08:54:28;101784.34;;;7.10;82.14
32873;BME280;19224;52.462;16.898;2024-01-30T08:56:58;101783.88;;;7.17;82.50
32873;BME280;19224;52.462;16.898;2024-01-30T08:59:34;101793.06;;;7.38;82.20
32873;BME280;19224;52.462;16.898;2024-01-30T09:02:06;101788.28;;;7.25;81.73
32873;BME280;19224;52.462;16.898;2024-01-30T09:04:36;101790.48;;;7.26;82.31
32873;BME280;19224;52.462;16.898;2024-01-30T09:07:06;101787.88;;;7.18;82.08
32873;BME280;19224;52.462;16.898;2024-01-30T09:09:43;101791.33;;;7.32;81.87
32873;BME280;19224;52.462;16.898;2024-01-30T09:12:14;101788.22;;;7.34;81.25
32873;BME280;19224;52.462;16.898;2024-01-30T09:14:44;101789.45;;;7.43;81.33
32873;BME280;19224;52.462;16.898;2024-01-30T09:17:21;101786.34;;;7.42;81.15
32873;BME280;19224;52.462;16.898;2024-01-30T09:19:53;101781.14;;;7.75;81.08
32873;BME280;19224;52.462;16.898;2024-01-30T09:22:23;101786.38;;;7.85;80.17
32873;BME280;19224;52.462;16.898;2024-01-30T09:24:54;101782.01;;;7.75;80.14
32873;BME280;19224;52.462;16.898;2024-01-30T09:27:24;101771.16;;;7.87;79.59
32873;BME280;19224;52.462;16.898;2024-01-30T09:29:55;101772.58;;;7.81;79.50
32873;BME280;19224;52.462;16.898;2024-01-30T09:32:26;101763.97;;;7.92;78.92
32873;BME280;19224;52.462;16.898;2024-01-30T09:34:56;101772.49;;;7.90;78.56
32873;BME280;19224;52.462;16.898;2024-01-30T09:37:26;101768.98;;;7.82;78.84
32873;BME280;19224;52.462;16.898;2024-01-30T09:39:57;101761.16;;;8.04;78.75
32873;BME280;19224;52.462;16.898;2024-01-30T09:42:36;101756.60;;;8.11;78.27
32873;BME280;19224;52.462;16.898;2024-01-30T09:45:07;101755.64;;;8.15;77.97
32873;BME280;19224;52.462;16.898;2024-01-30T09:47:44;101744.00;;;8.16;78.21
32873;BME280;19224;52.462;16.898;2024-01-30T09:50:16;101747.59;;;8.16;77.42
32873;BME280;19224;52.462;16.898;2024-01-30T09:52:48;101743.92;;;8.26;76.78
32873;BME280;19224;52.462;16.898;2024-01-30T09:55:25;101746.73;;;8.14;76.98
32873;BME280;19224;52.462;16.898;2024-01-30T09:57:56;101749.36;;;8.17;77.00
32873;BME280;19224;52.462;16.898;2024-01-30T10:00:32;101745.81;;;8.15;77.37
32873;BME280;19224;52.462;16.898;2024-01-30T10:03:02;101746.70;;;8.19;77.25
32873;BME280;19224;52.462;16.898;2024-01-30T10:05:38;101745.70;;;8.27;77.26
32873;BME280;19224;52.462;16.898;2024-01-30T10:08:10;101743.02;;;8.29;76.79
32873;BME280;19224;52.462;16.898;2024-01-30T10:10:40;101733.99;;;8.34;76.21
32873;BME280;19224;52.462;16.898;2024-01-30T10:13:11;101730.18;;;8.50;75.74
32873;BME280;19224;52.462;16.898;2024-01-30T10:15:44;101733.72;;;8.20;75.48
32873;BME280;19224;52.462;16.898;2024-01-30T10:18:14;101739.37;;;8.33;76.13
32873;BME280;19224;52.462;16.898;2024-01-30T10:20:46;101733.83;;;8.46;75.81
32873;BME280;19224;52.462;16.898;2024-01-30T10:23:18;101734.33;;;8.41;75.87
32873;BME280;19224;52.462;16.898;2024-01-30T10:25:49;101731.53;;;8.49;75.31
32873;BME280;19224;52.462;16.898;2024-01-30T10:28:21;101727.98;;;8.47;75.35
32873;BME280;19224;52.462;16.898;2024-01-30T10:31:00;101724.06;;;8.39;74.45
32873;BME280;19224;52.462;16.898;2024-01-30T10:33:33;101718.48;;;8.54;74.04
32873;BME280;19224;52.462;16.898;2024-01-30T10:36:09;101718.03;;;8.56;73.66
32873;BME280;19224;52.462;16.898;2024-01-30T10:38:43;101715.95;;;8.44;73.80
32873;BME280;19224;52.462;16.898;2024-01-30T10:41:16;101711.92;;;8.45;73.75
32873;BME280;19224;52.462;16.898;2024-01-30T10:43:55;101713.76;;;8.40;73.38
32873;BME280;19224;52.462;16.898;2024-01-30T10:46:26;101717.13;;;8.54;73.45
32873;BME280;19224;52.462;16.898;2024-01-30T10:48:59;101705.84;;;8.61;73.17
32873;BME280;19224;52.462;16.898;2024-01-30T10:51:30;101708.41;;;8.70;72.87
32873;BME280;19224;52.462;16.898;2024-01-30T10:54:01;101702.64;;;8.95;73.01
32873;BME280;19224;52.462;16.898;2024-01-30T10:56:33;101709.13;;;8.81;71.86
32873;BME280;19224;52.462;16.898;2024-01-30T10:59:05;101712.60;;;8.89;72.07
32873;BME280;19224;52.462;16.898;2024-01-30T11:01:36;101712.59;;;8.90;71.71
32873;BME280;19224;52.462;16.898;2024-01-30T11:04:07;101701.29;;;8.97;71.39
32873;BME280;19224;52.462;16.898;2024-01-30T11:06:44;101698.41;;;9.09;71.20
32873;BME280;19224;52.462;16.898;2024-01-30T11:09:17;101699.81;;;9.04;71.97
32873;BME280;19224;52.462;16.898;2024-01-30T11:11:56;101696.22;;;9.05;71.55
32873;BME280;19224;52.462;16.898;2024-01-30T11:14:31;101690.85;;;9.04;70.96
32873;BME280;19224;52.462;16.898;2024-01-30T11:17:02;101687.58;;;9.13;71.03
32873;BME280;19224;52.462;16.898;2024-01-30T11:19:37;101684.41;;;9.15;70.78
32873;BME280;19224;52.462;16.898;2024-01-30T11:22:10;101691.83;;;9.26;70.89
32873;BME280;19224;52.462;16.898;2024-01-30T11:24:41;101681.92;;;9.28;70.30
32873;BME280;19224;52.462;16.898;2024-01-30T11:27:12;101678.66;;;9.36;70.37
32873;BME280;19224;52.462;16.898;2024-01-30T11:29:49;101680.09;;;9.30;70.27
32873;BME280;19224;52.462;16.898;2024-01-30T11:32:22;101669.73;;;9.34;70.76
32873;BME280;19224;52.462;16.898;2024-01-30T11:34:52;101667.73;;;9.45;70.64
32873;BME280;19224;52.462;16.898;2024-01-30T11:37:25;101672.36;;;9.37;70.22
32873;BME280;19224;52.462;16.898;2024-01-30T11:39:57;101669.52;;;9.46;70.94
32873;BME280;19224;52.462;16.898;2024-01-30T11:42:30;101660.53;;;9.47;70.53
32873;BME280;19224;52.462;16.898;2024-01-30T11:45:01;101656.26;;;9.59;70.48
32873;BME280;19224;52.462;16.898;2024-01-30T11:47:34;101655.95;;;9.74;70.01
32873;BME280;19224;52.462;16.898;2024-01-30T11:50:05;101645.17;;;9.75;69.72
32873;BME280;19224;52.462;16.898;2024-01-30T11:52:37;101645.61;;;9.75;69.31
32873;BME280;19224;52.462;16.898;2024-01-30T11:55:09;101643.48;;;9.92;68.93
32873;BME280;19224;52.462;16.898;2024-01-30T11:57:40;101646.08;;;9.96;69.02
32873;BME280;19224;52.462;16.898;2024-01-30T12:00:18;101645.97;;;10.02;68.83
32873;BME280;19224;52.462;16.898;2024-01-30T12:02:54;101642.41;;;9.78;68.77
32873;BME280;19224;52.462;16.898;2024-01-30T12:05:26;101644.02;;;9.87;69.41
32873;BME280;19224;52.462;16.898;2024-01-30T12:07:57;101640.41;;;9.88;69.15
32873;BME280;19224;52.462;16.898;2024-01-30T12:10:33;101636.38;;;10.10;68.96
32873;BME280;19224;52.462;16.898;2024-01-30T12:13:03;101638.53;;;10.15;68.88
32873;BME280;19224;52.462;16.898;2024-01-30T12:15:35;101632.42;;;10.07;68.94
32873;BME280;19224;52.462;16.898;2024-01-30T12:18:07;101626.00;;;10.14;68.39
32873;BME280;19224;52.462;16.898;2024-01-30T12:20:41;101625.30;;;10.25;68.84
32873;BME280;19224;52.462;16.898;2024-01-30T12:23:14;101621.11;;;10.31;68.28
32873;BME280;19224;52.462;16.898;2024-01-30T12:25:46;101622.67;;;10.41;67.79
32873;BME280;19224;52.462;16.898;2024-01-30T12:28:20;101624.52;;;10.39;67.98
32873;BME280;19224;52.462;16.898;2024-01-30T12:31:02;101618.73;;;10.36;68.69
32873;BME280;19224;52.462;16.898;2024-01-30T12:33:40;101622.88;;;10.32;68.41
32873;BME280;19224;52.462;16.898;2024-01-30T12:36:16;101616.88;;;10.38;68.11
32873;BME280;19224;52.462;16.898;2024-01-30T12:38:48;101610.10;;;10.41;68.52
32873;BME280;19224;52.462;16.898;2024-01-30T12:41:20;101609.50;;;10.48;67.94
32873;BME280;19224;52.462;16.898;2024-01-30T12:43:54;101598.72;;;10.67;67.56
32873;BME280;19224;52.462;16.898;2024-01-30T12:46:29;101603.73;;;10.63;67.51
32873;BME280;19224;52.462;16.898;2024-01-30T12:49:02;101601.83;;;10.68;67.89
32873;BME280;19224;52.462;16.898;2024-01-30T12:51:35;101597.28;;;10.70;67.00
32873;BME280;19224;52.462;16.898;2024-01-30T12:54:09;101589.34;;;10.64;66.50
32873;BME280;19224;52.462;16.898;2024-01-30T12:56:49;101584.85;;;10.82;65.90
32873;BME280;19224;52.462;16.898;2024-01-30T12:59:21;101586.51;;;10.70;65.78
32873;BME280;19224;52.462;16.898;2024-01-30T13:01:53;101586.00;;;10.72;66.10
32873;BME280;19224;52.462;16.898;2024-01-30T13:04:24;101582.19;;;10.80;66.29
32873;BME280;19224;52.462;16.898;2024-01-30T13:06:58;101585.86;;;10.78;66.52
32873;BME280;19224;52.462;16.898;2024-01-30T13:09:37;101580.30;;;10.84;66.24
32873;BME280;19224;52.462;16.898;2024-01-30T13:12:07;101578.31;;;11.08;65.86